Time;durP1;ratioP1;P1;durP2;ratioP2;P2;SDS_P1;SDS_P2;PMS_P1;PMS_P2;Temp;Humidity;BMP_temperature;BMP_pressure;BME280_temperature;BME280_humidity;BME280_pressure;Samples;Min_cycle;Max_cycle;Signal;HPM_P1;HPM_P2
2023/05/06 00:00:01;;;;;;;;;;;9.80;99.90;;;;;;5103404;28;19912;-68
2023/05/06 00:02:28;;;;;;;;;;;9.90;99.90;;;;;;5104021;28;19938;-68
2023/05/06 00:04:54;;;;;;;;;;;9.80;99.90;;;;;;5055487;28;20127;-67
2023/05/06 00:07:20;;;;;;;;;;;9.80;99.90;;;;;;5086429;28;20018;-68
2023/05/06 00:09:46;;;;;;;;;;;9.90;99.90;;;;;;5080644;28;19974;-68
2023/05/06 00:12:12;;;;;;;;;;;9.90;99.90;;;;;;5086794;28;19920;-68
2023/05/06 00:14:37;;;;;;;;;;;10.00;99.90;;;;;;5099161;28;20337;-67
2023/05/06 00:17:03;;;;;;;;;;;10.00;99.90;;;;;;5082014;28;19912;-68
2023/05/06 00:19:28;;;;;;;;;;;9.90;99.90;;;;;;5084092;28;19916;-68
2023/05/06 00:21:54;;;;;;;;;;;10.00;99.90;;;;;;5087196;28;20376;-68
2023/05/06 00:24:20;;;;;;;;;;;10.00;99.90;;;;;;5066002;28;19919;-68
2023/05/06 00:26:45;;;;;;;;;;;9.90;99.90;;;;;;5085529;28;19916;-67
2023/05/06 00:29:11;;;;;;;;;;;9.90;99.90;;;;;;5085983;28;19912;-68
2023/05/06 00:31:36;;;;;;;;;;;9.90;99.90;;;;;;5088220;28;20498;-68
2023/05/06 00:34:02;;;;;;;;;;;9.90;99.90;;;;;;5084573;28;20037;-68
2023/05/06 00:36:29;;;;;;;;;;;9.80;99.90;;;;;;5085811;28;19960;-69
2023/05/06 00:38:54;;;;;;;;;;;9.80;99.90;;;;;;5082287;28;19969;-68
2023/05/06 00:41:20;;;;;;;;;;;9.80;99.90;;;;;;5085819;28;20379;-68
2023/05/06 00:43:45;;;;;;;;;;;9.80;99.90;;;;;;5067025;28;19916;-68
2023/05/06 00:46:14;;;;;;;;;;;9.70;99.90;;;;;;5083867;28;19967;-68
2023/05/06 00:48:40;;;;;;;;;;;9.60;99.90;;;;;;5083481;28;19956;-68
2023/05/06 00:51:05;;;;;;;;;;;9.60;99.90;;;;;;5066167;28;20006;-68
2023/05/06 00:53:31;;;;;;;;;;;9.60;99.90;;;;;;5064763;28;19920;-68
2023/05/06 00:55:57;;;;;;;;;;;9.70;99.90;;;;;;5084862;28;19916;-68
2023/05/06 00:58:23;;;;;;;;;;;9.60;99.90;;;;;;5062326;28;19920;-67
2023/05/06 01:00:48;;;;;;;;;;;9.60;99.90;;;;;;5081366;28;19999;-70
2023/05/06 01:03:14;;;;;;;;;;;9.70;99.90;;;;;;5084236;28;19955;-68
2023/05/06 01:06:06;;;;;;;;;;;9.70;99.90;;;;;;5082156;28;20001;-67
2023/05/06 01:08:40;;;;;;;;;;;9.80;99.90;;;;;;5081435;28;21388;-67
2023/05/06 01:11:10;;;;;;;;;;;9.80;99.90;;;;;;5084221;28;20070;-67
2023/05/06 01:13:44;;;;;;;;;;;9.70;99.90;;;;;;5099228;28;19967;-67
2023/05/06 01:16:11;;;;;;;;;;;9.80;99.90;;;;;;5081588;28;19916;-68
2023/05/06 01:18:37;;;;;;;;;;;9.80;99.90;;;;;;5062960;28;19916;-67
2023/05/06 01:21:03;;;;;;;;;;;9.80;99.90;;;;;;5088723;28;19966;-67
2023/05/06 01:23:48;;;;;;;;;;;9.80;99.90;;;;;;5088802;28;20379;-67
2023/05/06 01:26:14;;;;;;;;;;;9.80;99.90;;;;;;5105314;28;20388;-67
2023/05/06 01:28:39;;;;;;;;;;;9.90;99.90;;;;;;5087043;28;19916;-67
2023/05/06 01:31:08;;;;;;;;;;;9.80;99.90;;;;;;5067393;28;19916;-68
2023/05/06 01:33:33;;;;;;;;;;;9.90;99.90;;;;;;5090448;28;20156;-68
2023/05/06 01:36:07;;;;;;;;;;;9.90;99.90;;;;;;5088907;28;19916;-68
2023/05/06 01:38:32;;;;;;;;;;;9.80;99.90;;;;;;5089888;28;19957;-68
2023/05/06 01:40:59;;;;;;;;;;;9.80;99.90;;;;;;5072096;28;19974;-68
2023/05/06 01:43:26;;;;;;;;;;;9.70;99.90;;;;;;5071445;28;19916;-68
2023/05/06 01:45:53;;;;;;;;;;;9.70;99.90;;;;;;5087045;28;19923;-69
2023/05/06 01:48:21;;;;;;;;;;;9.70;99.90;;;;;;5088009;28;19913;-68
2023/05/06 01:50:47;;;;;;;;;;;9.70;99.90;;;;;;5091253;28;19916;-68
2023/05/06 01:53:12;;;;;;;;;;;9.70;99.90;;;;;;5088446;28;19965;-68
2023/05/06 01:55:38;;;;;;;;;;;9.80;99.90;;;;;;5089001;28;19916;-67
2023/05/06 01:58:04;;;;;;;;;;;9.70;99.90;;;;;;5071391;28;19963;-68
2023/05/06 02:00:29;;;;;;;;;;;9.50;99.90;;;;;;5087279;28;19920;-68
2023/05/06 02:02:55;;;;;;;;;;;9.60;99.90;;;;;;5091446;28;20600;-68
2023/05/06 02:05:20;;;;;;;;;;;9.70;99.90;;;;;;5091492;28;19920;-68
2023/05/06 02:07:46;;;;;;;;;;;9.70;99.90;;;;;;5086127;28;19939;-68
2023/05/06 02:10:12;;;;;;;;;;;9.70;99.90;;;;;;5070480;28;19920;-68
2023/05/06 02:12:37;;;;;;;;;;;9.60;99.90;;;;;;5087904;28;20326;-68
2023/05/06 02:15:03;;;;;;;;;;;9.60;99.90;;;;;;5069821;28;19935;-68
2023/05/06 02:17:28;;;;;;;;;;;9.60;99.90;;;;;;5086863;28;19916;-68
2023/05/06 02:19:54;;;;;;;;;;;9.60;99.90;;;;;;5086409;28;19912;-68
2023/05/06 02:22:20;;;;;;;;;;;9.70;99.90;;;;;;5088608;28;19966;-67
2023/05/06 02:24:45;;;;;;;;;;;9.70;99.90;;;;;;5086896;28;20422;-67
2023/05/06 02:27:11;;;;;;;;;;;9.60;99.90;;;;;;5088753;28;19959;-67
2023/05/06 02:29:36;;;;;;;;;;;9.70;99.90;;;;;;5087148;28;19919;-68
2023/05/06 02:32:02;;;;;;;;;;;9.60;99.90;;;;;;5087842;28;19920;-67
2023/05/06 02:34:28;;;;;;;;;;;9.60;99.90;;;;;;5086853;28;19920;-68
2023/05/06 02:36:54;;;;;;;;;;;9.70;99.90;;;;;;5086420;28;20483;-67
2023/05/06 02:39:19;;;;;;;;;;;9.70;99.90;;;;;;5084871;28;19927;-67
2023/05/06 02:41:45;;;;;;;;;;;9.60;99.90;;;;;;5084999;28;19923;-67
2023/05/06 02:44:10;;;;;;;;;;;9.60;99.90;;;;;;5069873;28;19920;-67
2023/05/06 02:46:36;;;;;;;;;;;9.60;99.90;;;;;;5087480;28;19927;-67
2023/05/06 02:49:02;;;;;;;;;;;9.60;99.90;;;;;;5053191;28;19919;-67
2023/05/06 02:51:27;;;;;;;;;;;9.60;99.90;;;;;;5066376;28;19920;-68
2023/05/06 02:53:53;;;;;;;;;;;9.50;99.90;;;;;;5087073;28;19952;-67
2023/05/06 02:56:18;;;;;;;;;;;9.50;99.90;;;;;;5067574;28;19916;-67
2023/05/06 02:58:44;;;;;;;;;;;9.50;99.90;;;;;;5085343;28;19998;-68
2023/05/06 03:01:09;;;;;;;;;;;9.60;99.90;;;;;;5067908;28;19923;-68
2023/05/06 03:03:35;;;;;;;;;;;9.60;99.90;;;;;;5088926;28;19916;-67
2023/05/06 03:06:00;;;;;;;;;;;9.60;99.90;;;;;;5088373;28;19908;-66
2023/05/06 03:08:26;;;;;;;;;;;9.60;99.90;;;;;;5088469;28;19912;-66
2023/05/06 03:10:52;;;;;;;;;;;9.60;99.90;;;;;;5088767;28;20319;-66
2023/05/06 03:13:17;;;;;;;;;;;9.50;99.90;;;;;;5088702;28;19920;-67
2023/05/06 03:15:43;;;;;;;;;;;9.60;99.90;;;;;;5086432;28;19974;-67
2023/05/06 03:18:08;;;;;;;;;;;9.60;99.90;;;;;;5068931;28;20547;-67
2023/05/06 03:20:34;;;;;;;;;;;9.50;99.90;;;;;;5069500;28;19912;-67
2023/05/06 03:23:00;;;;;;;;;;;9.60;99.90;;;;;;5086132;28;19912;-67
2023/05/06 03:25:25;;;;;;;;;;;9.60;99.90;;;;;;5086032;28;19987;-67
2023/05/06 03:27:51;;;;;;;;;;;9.60;99.90;;;;;;5086869;28;19916;-67
2023/05/06 03:30:17;;;;;;;;;;;9.60;99.90;;;;;;5067839;28;19984;-67
2023/05/06 03:32:44;;;;;;;;;;;9.60;99.90;;;;;;5085744;28;20109;-67
2023/05/06 03:35:10;;;;;;;;;;;9.50;99.90;;;;;;5088423;28;19952;-67
2023/05/06 03:37:35;;;;;;;;;;;9.50;99.90;;;;;;5087372;28;19919;-67
2023/05/06 03:40:03;;;;;;;;;;;9.40;99.90;;;;;;5086349;28;19912;-67
2023/05/06 03:42:29;;;;;;;;;;;9.40;99.90;;;;;;5088308;28;19912;-67
2023/05/06 03:44:54;;;;;;;;;;;9.40;99.90;;;;;;5085208;28;19965;-67
2023/05/06 03:47:20;;;;;;;;;;;9.40;99.90;;;;;;5068374;28;20011;-67
2023/05/06 03:49:45;;;;;;;;;;;9.40;99.90;;;;;;5070391;28;19916;-67
2023/05/06 03:52:11;;;;;;;;;;;9.50;99.90;;;;;;5088134;28;19916;-67
2023/05/06 03:54:36;;;;;;;;;;;9.50;99.90;;;;;;5086696;28;19954;-68
2023/05/06 03:57:02;;;;;;;;;;;9.50;99.90;;;;;;5088716;28;19916;-68
2023/05/06 03:59:28;;;;;;;;;;;9.40;99.90;;;;;;5087769;28;19916;-68
2023/05/06 04:01:55;;;;;;;;;;;9.40;99.90;;;;;;5068770;28;19919;-68
2023/05/06 04:04:20;;;;;;;;;;;9.40;99.90;;;;;;5088151;28;19916;-67
2023/05/06 04:06:46;;;;;;;;;;;9.50;99.90;;;;;;5088077;28;20346;-67
2023/05/06 04:09:11;;;;;;;;;;;9.40;99.90;;;;;;5087971;28;19916;-67
2023/05/06 04:11:37;;;;;;;;;;;9.40;99.90;;;;;;5052228;28;19931;-67
2023/05/06 04:14:02;;;;;;;;;;;9.40;99.90;;;;;;5085947;28;19920;-68
2023/05/06 04:16:28;;;;;;;;;;;9.40;99.90;;;;;;5087786;28;20391;-67
2023/05/06 04:18:55;;;;;;;;;;;9.50;99.90;;;;;;5065748;28;19912;-67
2023/05/06 04:21:20;;;;;;;;;;;9.40;99.90;;;;;;5085996;28;20304;-67
2023/05/06 04:23:46;;;;;;;;;;;9.30;99.90;;;;;;5069469;28;19919;-67
2023/05/06 04:26:12;;;;;;;;;;;9.40;99.90;;;;;;5090682;28;19915;-67
2023/05/06 04:28:37;;;;;;;;;;;9.50;99.90;;;;;;5088593;28;20423;-67
2023/05/06 04:31:03;;;;;;;;;;;9.50;99.90;;;;;;5089984;28;19938;-67
2023/05/06 04:33:30;;;;;;;;;;;9.50;99.90;;;;;;5053152;28;19920;-68
2023/05/06 04:35:55;;;;;;;;;;;9.40;99.90;;;;;;5087934;28;19916;-67
2023/05/06 04:38:21;;;;;;;;;;;9.40;99.90;;;;;;5090200;28;19923;-67
2023/05/06 04:40:47;;;;;;;;;;;9.40;99.90;;;;;;5091814;28;19999;-67
2023/05/06 04:43:13;;;;;;;;;;;9.40;99.90;;;;;;5069264;28;20256;-67
2023/05/06 04:45:41;;;;;;;;;;;9.30;99.90;;;;;;5089644;28;19912;-68
2023/05/06 04:48:08;;;;;;;;;;;9.30;99.90;;;;;;5087931;28;19944;-67
2023/05/06 04:50:34;;;;;;;;;;;9.40;99.90;;;;;;5062264;28;19911;-66
2023/05/06 04:52:59;;;;;;;;;;;9.40;99.90;;;;;;5096600;28;19924;-67
2023/05/06 04:55:25;;;;;;;;;;;9.40;99.90;;;;;;5080382;28;19916;-66
2023/05/06 04:57:50;;;;;;;;;;;9.40;99.90;;;;;;5098014;28;20008;-67
2023/05/06 05:00:16;;;;;;;;;;;9.50;99.90;;;;;;5063324;28;19912;-67
2023/05/06 05:02:42;;;;;;;;;;;9.30;99.90;;;;;;5061561;28;19920;-67
2023/05/06 05:05:08;;;;;;;;;;;9.40;99.90;;;;;;5084940;28;19924;-67
2023/05/06 05:07:33;;;;;;;;;;;9.50;99.90;;;;;;5070847;28;19916;-66
2023/05/06 05:09:59;;;;;;;;;;;9.40;99.90;;;;;;5087280;28;19941;-67
2023/05/06 05:12:24;;;;;;;;;;;9.40;99.90;;;;;;5082232;28;20223;-67
2023/05/06 05:14:50;;;;;;;;;;;9.40;99.90;;;;;;5079519;28;19923;-67
2023/05/06 05:17:15;;;;;;;;;;;9.40;99.90;;;;;;5081253;28;19919;-67
2023/05/06 05:19:41;;;;;;;;;;;9.30;99.90;;;;;;5061973;28;19973;-66
2023/05/06 05:22:06;;;;;;;;;;;9.40;99.90;;;;;;5087208;28;19915;-67
2023/05/06 05:24:32;;;;;;;;;;;9.50;99.90;;;;;;5086936;28;19912;-67
2023/05/06 05:26:57;;;;;;;;;;;9.50;99.90;;;;;;5069325;28;19916;-67
2023/05/06 05:29:23;;;;;;;;;;;9.50;99.90;;;;;;5086352;28;20070;-67
2023/05/06 05:31:49;;;;;;;;;;;9.50;99.90;;;;;;5084745;28;20383;-67
2023/05/06 05:34:14;;;;;;;;;;;9.40;99.90;;;;;;5087443;28;19916;-67
2023/05/06 05:36:40;;;;;;;;;;;9.40;99.90;;;;;;5069102;28;19955;-67
2023/05/06 05:39:05;;;;;;;;;;;9.40;99.90;;;;;;5087886;28;19912;-66
2023/05/06 05:41:31;;;;;;;;;;;9.40;99.90;;;;;;5085529;28;19923;-67
2023/05/06 05:43:56;;;;;;;;;;;9.50;99.90;;;;;;5084128;28;19939;-67
2023/05/06 05:46:22;;;;;;;;;;;9.50;99.90;;;;;;5084455;28;19995;-67
2023/05/06 05:48:48;;;;;;;;;;;9.40;99.90;;;;;;5087359;28;19916;-67
2023/05/06 05:51:13;;;;;;;;;;;9.50;99.90;;;;;;5083732;28;19923;-67
2023/05/06 05:53:39;;;;;;;;;;;9.60;99.90;;;;;;5069476;28;19966;-66
2023/05/06 05:56:05;;;;;;;;;;;9.60;99.90;;;;;;5087513;28;19912;-66
2023/05/06 05:58:30;;;;;;;;;;;9.60;99.90;;;;;;5086958;28;19919;-66
2023/05/06 06:00:56;;;;;;;;;;;9.60;99.90;;;;;;5091547;28;19935;-66
2023/05/06 06:03:21;;;;;;;;;;;9.50;99.90;;;;;;5087042;28;19935;-66
2023/05/06 06:05:48;;;;;;;;;;;9.50;99.90;;;;;;5085486;28;19920;-66
2023/05/06 06:08:15;;;;;;;;;;;9.50;99.90;;;;;;5070083;28;19916;-66
2023/05/06 06:10:41;;;;;;;;;;;9.50;99.90;;;;;;5086053;28;19924;-67
2023/05/06 06:13:07;;;;;;;;;;;9.50;99.90;;;;;;5064597;28;19920;-67
2023/05/06 06:15:32;;;;;;;;;;;9.50;99.90;;;;;;5086265;28;19982;-68
2023/05/06 06:17:58;;;;;;;;;;;9.60;99.90;;;;;;5081503;28;19943;-67
2023/05/06 06:20:24;;;;;;;;;;;9.50;99.90;;;;;;5099112;28;20456;-67
2023/05/06 06:22:49;;;;;;;;;;;9.50;99.90;;;;;;5068365;28;20426;-67
2023/05/06 06:25:15;;;;;;;;;;;9.60;99.90;;;;;;5066369;28;20487;-67
2023/05/06 06:27:41;;;;;;;;;;;9.60;99.90;;;;;;5080415;28;19931;-67
2023/05/06 06:30:06;;;;;;;;;;;9.60;99.90;;;;;;5066019;28;19942;-67
2023/05/06 06:32:32;;;;;;;;;;;9.50;99.90;;;;;;5083517;28;19914;-67
2023/05/06 06:34:57;;;;;;;;;;;9.50;99.90;;;;;;5082907;28;19948;-68
2023/05/06 06:37:23;;;;;;;;;;;9.50;99.90;;;;;;5089027;28;19941;-68
2023/05/06 06:39:49;;;;;;;;;;;9.60;99.90;;;;;;5067897;28;19920;-67
2023/05/06 06:42:14;;;;;;;;;;;9.60;99.90;;;;;;5087721;28;19916;-67
2023/05/06 06:44:40;;;;;;;;;;;9.60;99.90;;;;;;5086999;28;19920;-68
2023/05/06 06:47:05;;;;;;;;;;;9.60;99.90;;;;;;5083822;28;19912;-67
2023/05/06 06:49:31;;;;;;;;;;;9.60;99.90;;;;;;5086365;28;19919;-67
2023/05/06 06:51:56;;;;;;;;;;;9.60;99.90;;;;;;5086097;28;19920;-67
2023/05/06 06:54:22;;;;;;;;;;;9.70;99.90;;;;;;5084269;28;19928;-68
2023/05/06 06:56:48;;;;;;;;;;;9.70;99.90;;;;;;5065793;28;19927;-67
2023/05/06 06:59:13;;;;;;;;;;;9.60;99.90;;;;;;5087714;28;19984;-67
2023/05/06 07:01:40;;;;;;;;;;;9.60;99.90;;;;;;5087768;28;19916;-67
2023/05/06 07:04:05;;;;;;;;;;;9.60;99.90;;;;;;5080482;28;20380;-67
2023/05/06 07:06:31;;;;;;;;;;;9.60;99.90;;;;;;5063512;28;20038;-67
2023/05/06 07:08:57;;;;;;;;;;;9.70;99.90;;;;;;5103270;28;19912;-68
2023/05/06 07:11:22;;;;;;;;;;;9.60;99.90;;;;;;5100207;28;20362;-69
2023/05/06 07:13:50;;;;;;;;;;;9.60;99.90;;;;;;5066811;28;20183;-69
2023/05/06 07:16:15;;;;;;;;;;;9.60;99.90;;;;;;5083290;28;20009;-69
2023/05/06 07:18:41;;;;;;;;;;;9.70;99.90;;;;;;5085178;28;19916;-69
2023/05/06 07:21:07;;;;;;;;;;;9.70;99.90;;;;;;5062272;28;19951;-69
2023/05/06 07:23:32;;;;;;;;;;;9.70;99.90;;;;;;5057388;28;19912;-68
2023/05/06 07:25:58;;;;;;;;;;;9.80;99.90;;;;;;5094900;28;20007;-69
2023/05/06 07:28:24;;;;;;;;;;;9.90;99.90;;;;;;5069546;28;19912;-69
2023/05/06 07:30:50;;;;;;;;;;;10.00;99.90;;;;;;5068214;28;19943;-69
2023/05/06 07:33:16;;;;;;;;;;;9.90;99.90;;;;;;5085439;28;20398;-69
2023/05/06 07:35:41;;;;;;;;;;;9.90;99.90;;;;;;5066423;28;20018;-68
2023/05/06 07:38:07;;;;;;;;;;;9.90;99.90;;;;;;5083629;28;19916;-68
2023/05/06 07:40:33;;;;;;;;;;;9.80;99.90;;;;;;5068252;28;19939;-69
2023/05/06 07:42:58;;;;;;;;;;;9.80;99.90;;;;;;5066210;28;19926;-69
2023/05/06 07:45:24;;;;;;;;;;;9.90;99.90;;;;;;5088232;28;20383;-69
2023/05/06 07:47:50;;;;;;;;;;;10.00;99.90;;;;;;5064921;28;19927;-69
2023/05/06 07:50:16;;;;;;;;;;;10.00;99.90;;;;;;5078764;28;19924;-68
2023/05/06 07:52:41;;;;;;;;;;;10.00;99.90;;;;;;5067299;28;19943;-69
2023/05/06 07:55:08;;;;;;;;;;;9.90;99.90;;;;;;5086228;28;19934;-68
2023/05/06 07:57:34;;;;;;;;;;;10.00;99.90;;;;;;5082734;28;21810;-68
2023/05/06 08:00:00;;;;;;;;;;;9.90;99.90;;;;;;5072455;28;20440;-68
2023/05/06 08:02:25;;;;;;;;;;;10.00;99.90;;;;;;5102171;28;19916;-69
2023/05/06 08:04:51;;;;;;;;;;;10.00;99.90;;;;;;5087127;28;20426;-68
2023/05/06 08:07:17;;;;;;;;;;;9.90;99.90;;;;;;5084813;28;19947;-68
2023/05/06 08:09:43;;;;;;;;;;;10.00;99.90;;;;;;5085521;28;19923;-68
2023/05/06 08:12:08;;;;;;;;;;;9.90;99.90;;;;;;5084101;28;19912;-68
2023/05/06 08:14:35;;;;;;;;;;;9.90;99.90;;;;;;5079306;28;20379;-68
2023/05/06 08:17:01;;;;;;;;;;;9.90;99.90;;;;;;5076833;28;19915;-70
2023/05/06 08:19:27;;;;;;;;;;;10.00;99.90;;;;;;5089009;28;19927;-69
2023/05/06 08:21:52;;;;;;;;;;;10.10;99.90;;;;;;5086615;28;20338;-68
2023/05/06 08:24:18;;;;;;;;;;;10.20;99.90;;;;;;5094044;28;19924;-68
2023/05/06 08:26:44;;;;;;;;;;;10.10;99.90;;;;;;5065539;28;19920;-68
2023/05/06 08:29:10;;;;;;;;;;;10.20;99.90;;;;;;5090705;28;19920;-69
2023/05/06 08:31:35;;;;;;;;;;;10.50;99.90;;;;;;5103695;28;20368;-69
2023/05/06 08:34:01;;;;;;;;;;;10.30;99.90;;;;;;5073737;28;20010;-69
2023/05/06 08:36:26;;;;;;;;;;;10.40;99.90;;;;;;5091828;28;19966;-69
2023/05/06 08:38:52;;;;;;;;;;;10.50;99.90;;;;;;5090546;28;20291;-69
2023/05/06 08:41:18;;;;;;;;;;;10.50;99.90;;;;;;5073686;28;19912;-69
2023/05/06 08:43:45;;;;;;;;;;;10.50;99.90;;;;;;5088511;28;19961;-69
2023/05/06 08:46:12;;;;;;;;;;;10.50;99.90;;;;;;5070332;28;19989;-69
2023/05/06 08:48:37;;;;;;;;;;;10.50;99.90;;;;;;5067581;28;19912;-68
2023/05/06 08:51:03;;;;;;;;;;;10.50;99.90;;;;;;5085997;28;19931;-69
2023/05/06 08:53:29;;;;;;;;;;;10.50;99.90;;;;;;5082856;28;19967;-69
2023/05/06 08:55:56;;;;;;;;;;;10.30;99.90;;;;;;5068278;28;19965;-69
2023/05/06 08:58:23;;;;;;;;;;;10.20;99.90;;;;;;5105093;28;19922;-69
2023/05/06 09:00:49;;;;;;;;;;;10.40;99.90;;;;;;5072850;28;19994;-70
2023/05/06 09:03:14;;;;;;;;;;;10.50;99.90;;;;;;5090461;28;20403;-70
2023/05/06 09:06:05;;;;;;;;;;;10.40;99.90;;;;;;5662770;22;19982;31
2023/05/06 09:08:31;;;;;;;;;;;10.50;99.90;;;;;;4999601;28;19926;-74
2023/05/06 09:14:12;;;;;;;;;;;10.50;99.90;;;;;;5676432;22;19935;-73
2023/05/06 09:16:38;;;;;;;;;;;10.50;99.90;;;;;;5061218;28;19935;-72
2023/05/06 09:19:04;;;;;;;;;;;10.50;99.90;;;;;;5079351;28;19916;-72
2023/05/06 09:21:37;;;;;;;;;;;10.50;99.90;;;;;;5076787;28;19970;-72
2023/05/06 09:24:04;;;;;;;;;;;10.50;99.90;;;;;;5069884;28;19923;-72
2023/05/06 09:26:31;;;;;;;;;;;10.40;99.90;;;;;;5089421;22;20026;-73
2023/05/06 09:28:57;;;;;;;;;;;10.60;99.90;;;;;;5065608;28;19916;-70
2023/05/06 09:31:23;;;;;;;;;;;10.60;99.90;;;;;;5068018;28;19939;-72
2023/05/06 09:33:50;;;;;;;;;;;10.90;99.90;;;;;;5067987;28;19924;-71
2023/05/06 09:36:15;;;;;;;;;;;11.00;99.90;;;;;;5076264;28;20298;-71
2023/05/06 09:38:41;;;;;;;;;;;11.00;99.90;;;;;;5064572;28;19921;-71
2023/05/06 09:41:07;;;;;;;;;;;11.20;99.90;;;;;;5047438;28;20010;-71
2023/05/06 09:43:33;;;;;;;;;;;11.00;99.90;;;;;;5047110;28;19912;-73
2023/05/06 09:46:02;;;;;;;;;;;11.00;99.90;;;;;;5064065;28;19924;-71
2023/05/06 09:48:31;;;;;;;;;;;11.00;99.90;;;;;;5050693;28;19912;-71
2023/05/06 09:50:56;;;;;;;;;;;11.00;99.90;;;;;;5065014;28;19939;-72
2023/05/06 09:53:28;;;;;;;;;;;10.90;99.90;;;;;;5066107;28;20368;-72
2023/05/06 09:55:57;;;;;;;;;;;11.10;99.90;;;;;;5065553;28;20412;-71
2023/05/06 09:58:24;;;;;;;;;;;11.00;99.90;;;;;;5062635;28;19917;-71
2023/05/06 10:00:50;;;;;;;;;;;11.00;99.90;;;;;;5042755;28;19920;-71
2023/05/06 10:03:16;;;;;;;;;;;11.10;99.90;;;;;;5063124;28;19916;-74
2023/05/06 10:05:41;;;;;;;;;;;11.00;99.90;;;;;;5063854;28;19913;-71
2023/05/06 10:08:08;;;;;;;;;;;11.00;99.90;;;;;;5059789;28;20423;-71
2023/05/06 10:10:34;;;;;;;;;;;11.10;99.90;;;;;;5046216;28;19944;-72
2023/05/06 10:13:05;;;;;;;;;;;11.00;99.90;;;;;;5047476;28;19989;-72
2023/05/06 10:15:31;;;;;;;;;;;10.90;99.90;;;;;;5047567;28;19924;-71
2023/05/06 10:17:58;;;;;;;;;;;11.00;99.90;;;;;;5045411;28;19920;-71
2023/05/06 10:20:25;;;;;;;;;;;11.00;99.90;;;;;;5061766;28;20352;-71
2023/05/06 10:22:50;;;;;;;;;;;11.00;99.90;;;;;;5074973;28;19923;-72
2023/05/06 10:25:18;;;;;;;;;;;11.00;99.90;;;;;;5058273;28;19917;-72
2023/05/06 10:27:44;;;;;;;;;;;11.10;99.90;;;;;;5064682;28;20367;-71
2023/05/06 10:30:12;;;;;;;;;;;11.10;99.90;;;;;;5062380;28;19923;-72
2023/05/06 10:32:40;;;;;;;;;;;11.00;99.90;;;;;;5046868;28;19923;-70
2023/05/06 10:35:15;;;;;;;;;;;11.20;99.90;;;;;;5063373;28;20431;-72
2023/05/06 10:37:41;;;;;;;;;;;11.60;99.90;;;;;;5064055;28;19923;-71
2023/05/06 10:40:08;;;;;;;;;;;11.60;99.90;;;;;;5057679;28;19920;-73
2023/05/06 10:42:34;;;;;;;;;;;11.60;99.90;;;;;;5041624;28;20303;-75
2023/05/06 10:45:04;;;;;;;;;;;11.60;99.90;;;;;;5059626;28;19942;-71
2023/05/06 10:47:48;;;;;;;;;;;11.70;99.90;;;;;;5061126;28;20007;-73
2023/05/06 10:50:16;;;;;;;;;;;11.40;99.90;;;;;;5030981;28;20379;-73
2023/05/06 10:52:45;;;;;;;;;;;11.40;99.90;;;;;;5064545;28;19912;-71
2023/05/06 10:55:30;;;;;;;;;;;11.30;99.90;;;;;;5061653;28;19995;-73
2023/05/06 10:57:59;;;;;;;;;;;11.40;99.90;;;;;;5061624;28;19973;-72
2023/05/06 11:00:25;;;;;;;;;;;11.30;99.90;;;;;;5041201;28;20401;-75
2023/05/06 11:02:54;;;;;;;;;;;11.20;99.90;;;;;;5056783;28;19927;-72
2023/05/06 11:05:21;;;;;;;;;;;11.20;99.90;;;;;;5039266;28;19916;-72
2023/05/06 11:07:48;;;;;;;;;;;11.20;99.90;;;;;;5057697;28;19916;-72
2023/05/06 11:10:14;;;;;;;;;;;11.20;99.90;;;;;;5060025;28;19923;-75
2023/05/06 11:12:44;;;;;;;;;;;11.00;99.90;;;;;;5045552;28;19920;-74
2023/05/06 11:15:22;;;;;;;;;;;10.90;99.90;;;;;;5060232;28;20157;-72
2023/05/06 11:17:48;;;;;;;;;;;10.90;99.90;;;;;;5042472;28;20070;-73
2023/05/06 11:20:24;;;;;;;;;;;11.40;99.90;;;;;;5061184;28;20007;-71
2023/05/06 11:22:50;;;;;;;;;;;11.30;99.90;;;;;;5048119;28;19927;-73
2023/05/06 11:25:34;;;;;;;;;;;11.10;99.90;;;;;;5076258;28;20390;-72
2023/05/06 11:28:00;;;;;;;;;;;10.90;99.90;;;;;;5039615;28;19932;-74
2023/05/06 11:30:26;;;;;;;;;;;10.90;99.90;;;;;;5062171;28;19912;-71
2023/05/06 11:32:52;;;;;;;;;;;10.90;99.90;;;;;;5045675;28;19974;-73
2023/05/06 11:35:18;;;;;;;;;;;10.80;99.90;;;;;;5054702;28;19941;-72
2023/05/06 11:37:43;;;;;;;;;;;10.70;99.90;;;;;;5057217;28;20473;-72
2023/05/06 11:40:12;;;;;;;;;;;10.80;99.90;;;;;;5062029;28;19920;-70
2023/05/06 11:42:38;;;;;;;;;;;10.90;99.90;;;;;;5081237;28;19962;-72
2023/05/06 11:45:04;;;;;;;;;;;10.80;99.90;;;;;;5062300;28;19984;-70
2023/05/06 11:47:30;;;;;;;;;;;11.00;99.90;;;;;;5061580;28;20541;-72
2023/05/06 11:49:57;;;;;;;;;;;11.10;99.90;;;;;;5062472;28;20011;-70
2023/05/06 11:52:22;;;;;;;;;;;11.00;99.90;;;;;;5058771;28;19944;-72
2023/05/06 11:54:50;;;;;;;;;;;11.00;99.90;;;;;;5039884;28;20020;-74
2023/05/06 11:57:16;;;;;;;;;;;11.00;99.90;;;;;;5058560;28;19974;-72
2023/05/06 11:59:41;;;;;;;;;;;11.00;99.90;;;;;;5059773;28;20011;-69
2023/05/06 12:02:08;;;;;;;;;;;10.90;99.90;;;;;;5045683;28;19947;-70
2023/05/06 12:04:38;;;;;;;;;;;11.00;99.90;;;;;;5057647;28;19928;-70
2023/05/06 12:07:04;;;;;;;;;;;10.90;99.90;;;;;;5054661;28;19916;-71
2023/05/06 12:09:30;;;;;;;;;;;10.90;99.90;;;;;;5062304;28;19924;-70
2023/05/06 12:11:56;;;;;;;;;;;11.00;99.90;;;;;;5045203;28;19942;-70
2023/05/06 12:14:21;;;;;;;;;;;11.00;99.90;;;;;;5054682;28;19916;-73
2023/05/06 12:16:47;;;;;;;;;;;11.10;99.90;;;;;;5041173;28;19931;-72
2023/05/06 12:19:17;;;;;;;;;;;11.10;99.90;;;;;;5054688;28;20451;-73
2023/05/06 12:21:42;;;;;;;;;;;11.30;99.90;;;;;;5056304;28;19917;-70
2023/05/06 12:24:08;;;;;;;;;;;11.20;99.90;;;;;;5043305;28;19916;-71
2023/05/06 12:26:42;;;;;;;;;;;11.20;99.90;;;;;;5060262;28;19912;-71
2023/05/06 12:29:09;;;;;;;;;;;11.30;99.90;;;;;;5045458;28;20398;-69
2023/05/06 12:31:35;;;;;;;;;;;11.30;99.90;;;;;;5049664;28;19959;-69
2023/05/06 12:34:01;;;;;;;;;;;11.20;99.90;;;;;;5038157;28;20012;-70
2023/05/06 12:36:26;;;;;;;;;;;11.20;99.90;;;;;;5046639;28;19966;-69
2023/05/06 12:38:53;;;;;;;;;;;11.10;99.90;;;;;;5047221;28;19916;-72
2023/05/06 12:41:19;;;;;;;;;;;11.20;99.90;;;;;;5054691;28;20450;-71
2023/05/06 12:43:45;;;;;;;;;;;11.30;99.90;;;;;;5061853;28;20335;-71
2023/05/06 12:46:11;;;;;;;;;;;11.30;99.90;;;;;;5049763;28;20256;-70
2023/05/06 12:48:37;;;;;;;;;;;11.30;99.90;;;;;;5082820;28;19919;-70
2023/05/06 12:51:19;;;;;;;;;;;11.30;99.90;;;;;;5049317;28;19912;-71
2023/05/06 12:53:45;;;;;;;;;;;11.20;99.90;;;;;;5064752;28;19939;-70
2023/05/06 12:56:10;;;;;;;;;;;11.30;99.90;;;;;;5052486;28;19913;-70
2023/05/06 12:58:37;;;;;;;;;;;11.30;99.90;;;;;;5051435;28;20298;-69
2023/05/06 13:01:03;;;;;;;;;;;11.30;99.90;;;;;;5049274;28;19920;-70
2023/05/06 13:03:29;;;;;;;;;;;11.40;99.90;;;;;;5050314;28;19972;-71
2023/05/06 13:05:54;;;;;;;;;;;11.40;99.90;;;;;;5063514;28;20008;-70
2023/05/06 13:08:20;;;;;;;;;;;11.60;99.90;;;;;;5067004;28;19916;-71
2023/05/06 13:10:46;;;;;;;;;;;11.70;99.90;;;;;;5083340;28;20340;-71
2023/05/06 13:13:11;;;;;;;;;;;11.50;99.90;;;;;;5061394;28;19917;-69
2023/05/06 13:15:37;;;;;;;;;;;11.60;99.90;;;;;;5049704;28;19919;-68
2023/05/06 13:18:03;;;;;;;;;;;11.70;99.90;;;;;;5062422;28;19920;-69
2023/05/06 13:20:29;;;;;;;;;;;11.70;99.90;;;;;;5062312;28;20478;-69
2023/05/06 13:22:55;;;;;;;;;;;11.70;99.90;;;;;;5046793;28;19924;-70
2023/05/06 13:25:21;;;;;;;;;;;11.70;99.90;;;;;;5048358;28;19927;-68
2023/05/06 13:27:46;;;;;;;;;;;11.90;99.90;;;;;;5065226;28;19920;-70
2023/05/06 13:30:12;;;;;;;;;;;12.30;99.90;;;;;;5047406;28;20295;-69
2023/05/06 13:32:37;;;;;;;;;;;12.00;99.90;;;;;;5061937;28;20239;-70
2023/05/06 13:35:04;;;;;;;;;;;11.80;99.90;;;;;;5047297;28;20321;-69
2023/05/06 13:37:30;;;;;;;;;;;11.80;99.90;;;;;;5081306;28;20032;-69
2023/05/06 13:39:56;;;;;;;;;;;11.50;99.90;;;;;;5067371;28;19908;-69
2023/05/06 13:42:22;;;;;;;;;;;11.60;99.90;;;;;;5063810;28;19916;-71
2023/05/06 13:44:47;;;;;;;;;;;11.60;99.90;;;;;;5049473;28;19917;-70
2023/05/06 13:47:13;;;;;;;;;;;11.50;99.90;;;;;;5082099;28;19919;-69
2023/05/06 13:49:39;;;;;;;;;;;11.70;99.90;;;;;;5063725;28;20375;-69
2023/05/06 13:52:05;;;;;;;;;;;11.70;99.90;;;;;;5063874;28;20190;-71
2023/05/06 13:54:30;;;;;;;;;;;11.50;99.90;;;;;;5063036;28;21205;-72
2023/05/06 13:56:57;;;;;;;;;;;11.50;99.90;;;;;;5064349;28;19977;-70
2023/05/06 13:59:22;;;;;;;;;;;11.50;99.90;;;;;;5066003;28;20348;-72
2023/05/06 14:01:48;;;;;;;;;;;11.60;99.90;;;;;;5063839;28;19920;-71
2023/05/06 14:04:14;;;;;;;;;;;11.60;99.90;;;;;;5084263;28;19919;-70
2023/05/06 14:06:40;;;;;;;;;;;11.60;99.90;;;;;;5047521;28;19920;-71
2023/05/06 14:09:06;;;;;;;;;;;11.60;99.90;;;;;;5063964;28;20324;-71
2023/05/06 14:11:31;;;;;;;;;;;11.50;99.90;;;;;;5065201;28;20384;-74
2023/05/06 14:13:57;;;;;;;;;;;11.60;99.90;;;;;;5061433;28;19923;-71
2023/05/06 14:16:23;;;;;;;;;;;11.40;99.90;;;;;;5056382;28;19939;-70
2023/05/06 14:18:48;;;;;;;;;;;11.50;99.90;;;;;;5074199;28;19927;-70
2023/05/06 14:21:14;;;;;;;;;;;11.50;99.90;;;;;;5070456;28;20445;-71